Time;durP1;ratioP1;P1;durP2;ratioP2;P2;SDS_P1;SDS_P2;PMS_P1;PMS_P2;Temp;Humidity;BMP_temperature;BMP_pressure;BME280_temperature;BME280_humidity;BME280_pressure;Samples;Min_cycle;Max_cycle;Signal;HPM_P1;HPM_P2
2021/04/09 00:00:25;;;;;;;4.72;1.45;;;;;;;8.75;100.00;101915.03;5050352;28;20071;-69
2021/04/09 00:02:51;;;;;;;4.35;1.40;;;;;;;8.72;100.00;101904.56;5050780;28;20036;-67
2021/04/09 00:05:19;;;;;;;4.40;1.98;;;;;;;8.68;100.00;101906.03;5050212;28;20068;-67
2021/04/09 00:07:46;;;;;;;6.90;1.98;;;;;;;8.65;100.00;101903.66;5050285;28;20037;-68
2021/04/09 00:10:12;;;;;;;6.10;1.63;;;;;;;8.63;100.00;101905.75;5050248;28;20040;-68
2021/04/09 00:12:39;;;;;;;8.23;2.13;;;;;;;8.62;100.00;101903.25;5050224;28;20036;-68
2021/04/09 00:15:08;;;;;;;5.35;2.58;;;;;;;8.59;100.00;101899.06;5050168;28;20033;-67
2021/04/09 00:17:33;;;;;;;2.92;1.38;;;;;;;8.58;100.00;101894.66;5049074;28;20411;-70
2021/04/09 00:19:59;;;;;;;7.75;1.60;;;;;;;8.57;100.00;101894.84;5050300;28;20048;-70
2021/04/09 00:22:25;;;;;;;2.95;1.98;;;;;;;8.54;100.00;101884.38;5052301;28;20044;-69
2021/04/09 00:24:51;;;;;;;5.43;1.90;;;;;;;8.52;100.00;101887.31;5054032;28;20028;-68
2021/04/09 00:27:16;;;;;;;4.30;1.52;;;;;;;8.49;100.00;101887.69;5053820;28;20033;-70
2021/04/09 00:29:42;;;;;;;5.13;1.40;;;;;;;8.46;100.00;101879.94;5053869;28;20399;-70
2021/04/09 00:32:08;;;;;;;4.72;1.60;;;;;;;8.44;100.00;101884.75;5053739;28;20175;-68
2021/04/09 00:34:33;;;;;;;3.25;1.67;;;;;;;8.41;100.00;101879.72;5052245;28;20033;-70
2021/04/09 00:36:59;;;;;;;1.65;1.35;;;;;;;8.37;100.00;101873.00;5053770;28;20048;-68
2021/04/09 00:39:25;;;;;;;5.25;1.60;;;;;;;8.32;100.00;101870.81;5052336;28;20047;-70
2021/04/09 00:41:50;;;;;;;3.03;1.52;;;;;;;8.29;100.00;101867.66;5052066;28;20056;-68
2021/04/09 00:44:16;;;;;;;3.67;1.48;;;;;;;8.27;100.00;101864.31;5053437;28;20040;-72
2021/04/09 00:46:42;;;;;;;4.85;1.45;;;;;;;8.23;100.00;101865.75;5053562;28;20044;-72
2021/04/09 00:49:10;;;;;;;2.65;1.58;;;;;;;8.20;100.00;101860.72;5053454;28;20044;-69
2021/04/09 00:51:36;;;;;;;3.53;2.20;;;;;;;8.17;100.00;101864.69;5053400;28;20066;-68
2021/04/09 00:54:04;;;;;;;3.63;2.13;;;;;;;8.13;100.00;101860.69;5052116;28;20163;-68
2021/04/09 00:56:31;;;;;;;6.15;2.30;;;;;;;8.10;100.00;101858.38;5053397;28;20036;-68
2021/04/09 00:58:58;;;;;;;4.50;2.08;;;;;;;8.07;100.00;101856.06;5053308;28;20372;-68
2021/04/09 01:01:24;;;;;;;6.07;2.05;;;;;;;8.02;100.00;101859.38;5053204;28;20049;-70
2021/04/09 01:03:51;;;;;;;6.38;2.88;;;;;;;7.97;100.00;101853.69;5053113;28;20139;-68
2021/04/09 01:06:18;;;;;;;3.05;1.90;;;;;;;7.92;100.00;101842.56;5053153;28;20502;-69
2021/04/09 01:08:44;;;;;;;4.75;2.10;;;;;;;7.89;100.00;101839.41;5053177;28;20029;-68
2021/04/09 01:11:11;;;;;;;4.00;1.95;;;;;;;7.84;100.00;101842.75;5053147;28;20029;-72
2021/04/09 01:13:37;;;;;;;4.93;2.05;;;;;;;7.80;100.00;101833.28;5052870;28;20048;-68
2021/04/09 01:16:10;;;;;;;5.43;1.85;;;;;;;7.77;100.00;101839.13;5051453;28;20499;-67
2021/04/09 01:18:48;;;;;;;6.32;2.30;;;;;;;7.74;100.00;101839.53;5052822;28;20037;-68
2021/04/09 01:21:23;;;;;;;5.70;1.98;;;;;;;7.70;100.00;101827.38;5052832;28;20033;-69
2021/04/09 01:24:15;;;;;;;4.97;2.30;;;;;;;7.67;100.00;101814.19;5053072;28;20068;-68
2021/04/09 01:26:52;;;;;;;5.80;2.47;;;;;;;7.63;100.00;101815.59;5052930;28;20040;-67
2021/04/09 01:29:42;;;;;;;5.18;2.08;;;;;;;7.59;100.00;101808.88;5034677;28;20127;-69
2021/04/09 01:32:10;;;;;;;6.95;2.45;;;;;;;7.55;100.00;101809.28;5052310;28;20047;-68
2021/04/09 01:35:05;;;;;;;6.22;2.58;;;;;;;7.53;100.00;101811.38;5051208;28;20537;-69
2021/04/09 01:37:39;;;;;;;7.80;2.60;;;;;;;7.49;100.00;101810.09;5051226;28;20056;-69
2021/04/09 01:40:21;;;;;;;5.00;2.35;;;;;;;7.45;100.00;101803.34;5052678;28;20037;-68
2021/04/09 01:42:53;;;;;;;4.82;2.15;;;;;;;7.44;100.00;101801.66;5052641;28;20045;-68
2021/04/09 01:45:21;;;;;;;5.93;2.55;;;;;;;7.41;100.00;101802.06;5052169;28;20033;-68
2021/04/09 01:47:48;;;;;;;2.75;2.45;;;;;;;7.38;100.00;101797.03;5052419;28;20036;-68
2021/04/09 01:50:17;;;;;;;5.97;2.58;;;;;;;7.35;100.00;101793.88;5052336;28;20116;-69
2021/04/09 01:52:45;;;;;;;7.97;2.92;;;;;;;7.34;100.00;101792.19;5052264;28;20128;-70
2021/04/09 01:55:13;;;;;;;8.05;2.53;;;;;;;7.30;100.00;101786.31;5052281;28;20033;-68
2021/04/09 01:57:41;;;;;;;4.60;2.83;;;;;;;7.27;100.00;101786.69;5052275;28;20040;-68
2021/04/09 02:00:13;;;;;;;7.35;2.72;;;;;;;7.25;100.00;101783.34;5052267;28;20068;-68
2021/04/09 02:02:42;;;;;;;6.65;2.92;;;;;;;7.24;100.00;101784.38;5052121;28;20103;-67
2021/04/09 02:05:08;;;;;;;3.90;2.85;;;;;;;7.22;100.00;101781.03;5052007;28;20037;-68
2021/04/09 02:07:35;;;;;;;3.80;2.60;;;;;;;7.20;100.00;101783.09;5052004;28;20542;-70
2021/04/09 02:10:04;;;;;;;4.78;2.47;;;;;;;7.17;100.00;101773.47;5051959;28;20044;-69
2021/04/09 02:12:30;;;;;;;7.05;2.78;;;;;;;7.15;100.00;101766.56;5052037;28;20053;-69
2021/04/09 02:14:57;;;;;;;2.83;2.55;;;;;;;7.12;100.00;101765.06;5051920;28;20114;-69
2021/04/09 02:17:23;;;;;;;6.25;2.75;;;;;;;7.10;100.00;101761.69;5051826;28;20072;-68
2021/04/09 02:19:50;;;;;;;7.22;3.33;;;;;;;7.08;100.00;101762.94;5051813;28;20036;-67
2021/04/09 02:22:17;;;;;;;6.07;3.80;;;;;;;7.05;100.00;101763.31;5051663;28;20040;-70
2021/04/09 02:24:42;;;;;;;6.05;4.10;;;;;;;7.03;100.00;101755.38;5051621;28;20033;-70
2021/04/09 02:27:08;;;;;;;5.68;3.70;;;;;;;7.00;100.00;101749.50;5034174;28;20369;-69
2021/04/09 02:29:34;;;;;;;5.93;3.80;;;;;;;6.97;100.00;101747.19;5051726;28;20395;-68
2021/04/09 02:32:01;;;;;;;9.07;3.72;;;;;;;6.94;100.00;101745.66;5051766;28;20044;-67
2021/04/09 02:34:27;;;;;;;5.75;4.05;;;;;;;6.92;100.00;101743.16;5049986;28;20091;-70
2021/04/09 02:36:54;;;;;;;6.28;3.80;;;;;;;6.92;100.00;101745.88;5051421;28;20082;-67
2021/04/09 02:39:22;;;;;;;5.43;3.63;;;;;;;6.92;100.00;101748.59;5051336;28;20037;-69
2021/04/09 02:41:56;;;;;;;5.63;3.70;;;;;;;6.89;100.00;101738.13;5051303;28;20040;-68
2021/04/09 02:44:22;;;;;;;7.32;3.92;;;;;;;6.86;100.00;101735.81;5050634;28;20091;-70
2021/04/09 02:46:57;;;;;;;7.97;4.40;;;;;;;6.84;100.00;101739.75;5051411;28;20041;-69
2021/04/09 02:49:42;;;;;;;6.50;4.45;;;;;;;6.79;100.00;101736.78;5051244;28;20115;-69
2021/04/09 02:52:16;;;;;;;7.75;4.53;;;;;;;6.77;100.00;101737.00;5051063;28;20048;-69
2021/04/09 02:54:43;;;;;;;;;;;;;;;6.74;100.00;101729.22;5051448;28;20037;-67
2021/04/09 02:57:10;;;;;;;5.70;3.53;;;;;;;6.71;100.00;101729.59;5051117;28;19966;-68
2021/04/09 02:59:36;;;;;;;8.07;4.28;;;;;;;6.70;100.00;101727.09;5051241;28;20029;-68
2021/04/09 03:02:03;;;;;;;7.13;4.28;;;;;;;6.69;100.00;101731.69;5051243;28;20037;-68
2021/04/09 03:04:29;;;;;;;8.32;4.15;;;;;;;6.65;100.00;101722.25;5051069;28;20037;-68
2021/04/09 03:06:56;;;;;;;7.30;4.20;;;;;;;6.61;100.00;101718.25;5050983;28;20040;-68
2021/04/09 03:09:23;;;;;;;6.40;4.80;;;;;;;6.59;100.00;101725.72;5049571;28;20505;-70
2021/04/09 03:11:49;;;;;;;9.77;4.80;;;;;;;6.54;100.00;101717.34;5050827;28;20052;-69
2021/04/09 03:14:16;;;;;;;8.50;4.72;;;;;;;6.51;100.00;101724.00;5050852;28;20398;-67
2021/04/09 03:17:00;;;;;;;6.97;4.47;;;;;;;6.48;100.00;101712.69;5050828;28;20477;-69
2021/04/09 03:19:27;;;;;;;6.97;5.55;;;;;;;6.45;100.00;101707.66;5049873;28;20082;-68
2021/04/09 03:21:52;;;;;;;10.25;4.40;;;;;;;6.43;100.00;101704.31;5050607;28;20132;-67
2021/04/09 03:24:18;;;;;;;10.05;4.80;;;;;;;6.39;100.00;101703.00;5050625;28;20045;-67
2021/04/09 03:26:43;;;;;;;7.32;5.30;;;;;;;6.36;100.00;101698.78;5049484;28;20033;-69
2021/04/09 03:29:09;;;;;;;8.57;5.20;;;;;;;6.34;100.00;101695.44;5050663;28;20040;-69
2021/04/09 03:31:35;;;;;;;8.68;5.25;;;;;;;6.31;100.00;101702.09;5050745;28;20039;-69
2021/04/09 03:34:01;;;;;;;8.93;5.32;;;;;;;6.31;100.00;101696.66;5050898;28;20487;-67
2021/04/09 03:36:27;;;;;;;7.20;4.45;;;;;;;6.29;100.00;101693.31;5050916;28;20406;-68
2021/04/09 03:38:53;;;;;;;10.45;6.30;;;;;;;6.26;100.00;101688.28;5050871;28;20131;-68
2021/04/09 03:41:18;;;;;;;13.60;4.90;;;;;;;6.24;100.00;101689.47;5050675;28;20041;-69
2021/04/09 03:43:44;;;;;;;4.90;4.20;;;;;;;6.22;100.00;101681.53;5050691;28;20036;-68
2021/04/09 03:46:09;;;;;;;7.97;5.38;;;;;;;6.20;100.00;101683.59;5050687;28;20402;-69
2021/04/09 03:48:35;;;;;;;8.68;5.10;;;;;;;6.18;100.00;101696.53;5050617;28;20037;-67
2021/04/09 03:51:02;;;;;;;7.45;4.90;;;;;;;6.15;100.00;101685.22;5050663;28;20411;-68
2021/04/09 03:53:28;;;;;;;7.72;5.28;;;;;;;6.13;100.00;101690.84;5049376;28;20458;-69
2021/04/09 03:55:54;;;;;;;7.45;4.97;;;;;;;6.11;100.00;101690.19;5050932;28;20065;-68
2021/04/09 03:58:20;;;;;;;10.48;5.43;;;;;;;6.09;100.00;101681.41;5054665;28;20076;-69
2021/04/09 04:00:45;;;;;;;8.48;5.47;;;;;;;6.08;100.00;101676.19;5054571;28;20111;-69
2021/04/09 04:03:15;;;;;;;10.05;5.50;;;;;;;6.08;100.00;101684.31;5054558;28;20120;-69
2021/04/09 04:05:41;;;;;;;7.82;6.15;;;;;;;6.07;100.00;101683.44;5054725;28;20094;-68
2021/04/09 04:08:06;;;;;;;8.23;6.53;;;;;;;6.05;100.00;101674.66;5054796;28;20041;-68
2021/04/09 04:10:32;;;;;;;8.30;6.03;;;;;;;6.03;100.00;101674.88;5054707;28;20111;-68
2021/04/09 04:12:58;;;;;;;11.35;5.95;;;;;;;6.02;100.00;101677.78;5054671;28;20045;-70
2021/04/09 04:15:23;;;;;;;9.40;6.15;;;;;;;5.98;100.00;101673.78;5054512;28;20475;-68
2021/04/09 04:17:50;;;;;;;15.38;6.72;;;;;;;5.97;100.00;101663.97;5054300;28;20041;-68
2021/04/09 04:20:16;;;;;;;9.95;6.32;;;;;;;5.96;100.00;101673.97;5053223;28;20094;-69
2021/04/09 04:22:42;;;;;;;8.63;6.13;;;;;;;5.95;100.00;101666.03;5054405;28;20033;-69
2021/04/09 04:25:09;;;;;;;9.57;5.90;;;;;;;5.94;100.00;101669.78;5053199;28;20068;-68
2021/04/09 04:27:34;;;;;;;9.02;6.32;;;;;;;5.91;100.00;101662.03;5053094;28;20094;-68
2021/04/09 04:30:01;;;;;;;7.82;5.95;;;;;;;5.90;100.00;101672.03;5054257;28;20037;-68
2021/04/09 04:32:26;;;;;;;9.07;6.50;;;;;;;5.89;100.00;101674.88;5054092;28;20033;-70
2021/04/09 04:34:52;;;;;;;10.50;6.80;;;;;;;5.89;100.00;101664.03;5054070;28;20756;-69
2021/04/09 04:37:18;;;;;;;13.63;6.78;;;;;;;5.88;100.00;101674.03;5054009;28;20122;-69
2021/04/09 04:39:44;;;;;;;10.95;6.63;;;;;;;5.88;100.00;101662.34;5054169;28;20033;-69
2021/04/09 04:42:10;;;;;;;10.85;6.85;;;;;;;5.88;100.00;101662.34;5053745;28;20048;-68
2021/04/09 04:44:36;;;;;;;8.65;6.07;;;;;;;5.84;100.00;101666.47;5053864;28;20043;-68
2021/04/09 04:47:02;;;;;;;10.85;6.85;;;;;;;5.81;100.00;101656.03;5053873;28;20159;-68
2021/04/09 04:49:28;;;;;;;9.95;6.80;;;;;;;5.78;100.00;101651.00;5053937;28;20053;-70
2021/04/09 04:51:54;;;;;;;9.80;6.85;;;;;;;5.75;100.00;101652.22;5053699;28;20495;-69
2021/04/09 04:54:20;;;;;;;10.25;6.25;;;;;;;5.71;100.00;101645.47;5053695;28;20116;-68
2021/04/09 04:56:45;;;;;;;8.88;5.93;;;;;;;5.66;100.00;101646.06;5053807;28;20033;-67
2021/04/09 04:59:11;;;;;;;8.60;5.82;;;;;;;5.58;100.00;101648.88;5053620;28;20555;-69
2021/04/09 05:01:37;;;;;;;7.68;5.80;;;;;;;5.51;100.00;101639.81;5053449;28;20543;-70
2021/04/09 05:04:03;;;;;;;8.48;5.55;;;;;;;5.42;100.00;101640.97;5053481;28;20139;-68
2021/04/09 05:06:29;;;;;;;12.20;5.88;;;;;;;5.34;100.00;101635.63;5052281;28;20086;-68
2021/04/09 05:08:54;;;;;;;8.75;5.35;;;;;;;5.28;100.00;101628.28;5052777;28;20499;-70
2021/04/09 05:11:22;;;;;;;13.65;5.35;;;;;;;5.23;100.00;101636.13;5053471;28;20132;-69
2021/04/09 05:13:47;;;;;;;7.75;5.20;;;;;;;5.17;100.00;101644.97;5053312;28;20040;-69
2021/04/09 05:16:14;;;;;;;9.70;5.75;;;;;;;5.13;100.00;101642.66;5053344;28;20061;-67
2021/04/09 05:18:39;;;;;;;9.18;5.25;;;;;;;5.08;100.00;101650.50;5053301;28;20083;-68
2021/04/09 05:21:06;;;;;;;10.27;5.57;;;;;;;5.03;100.00;101646.66;5053248;28;20041;-68
2021/04/09 05:23:32;;;;;;;9.82;6.30;;;;;;;5.01;100.00;101648.72;5053131;28;20041;-69
2021/04/09 05:25:58;;;;;;;8.10;5.38;;;;;;;4.99;100.00;101640.78;5053165;28;20136;-69
2021/04/09 05:28:24;;;;;;;10.30;5.20;;;;;;;4.98;100.00;101652.63;5053236;28;20079;-67
2021/04/09 05:30:49;;;;;;;10.63;5.72;;;;;;;4.96;100.00;101651.97;5053062;28;20033;-68
2021/04/09 05:33:16;;;;;;;11.50;5.60;;;;;;;4.96;100.00;101651.97;5052903;28;20037;-67
2021/04/09 05:35:41;;;;;;;8.93;5.72;;;;;;;4.97;100.00;101663.66;5052695;28;20044;-68
2021/04/09 05:38:07;;;;;;;10.48;5.45;;;;;;;4.97;100.00;101664.50;5052621;28;20459;-67
2021/04/09 05:40:33;;;;;;;9.38;6.03;;;;;;;4.99;100.00;101667.84;5052539;28;20075;-68
2021/04/09 05:42:59;;;;;;;11.48;6.15;;;;;;;4.99;100.00;101665.13;5052630;28;20099;-69
2021/04/09 05:45:26;;;;;;;11.25;7.40;;;;;;;5.00;100.00;101669.53;5052749;28;20107;-69
2021/04/09 05:47:52;;;;;;;10.93;6.40;;;;;;;5.03;100.00;101671.88;5052408;28;20037;-68
2021/04/09 05:50:18;;;;;;;11.95;7.38;;;;;;;5.06;100.00;101668.81;5052509;28;20048;-68
2021/04/09 05:52:44;;;;;;;16.55;7.75;;;;;;;5.10;100.00;101670.09;5051975;28;20053;-68
2021/04/09 05:55:10;;;;;;;12.43;8.88;;;;;;;5.13;100.00;101664.31;5050946;28;20053;-68
2021/04/09 05:57:36;;;;;;;14.30;7.30;;;;;;;5.13;100.00;101667.03;5052406;28;20548;-69
2021/04/09 06:00:04;;;;;;;18.77;7.35;;;;;;;5.17;100.00;101664.78;5050918;28;20045;-70
2021/04/09 06:02:30;;;;;;;12.93;7.38;;;;;;;5.17;100.00;101664.78;5052352;28;20033;-67
2021/04/09 06:04:55;;;;;;;14.52;7.15;;;;;;;5.18;100.00;101671.03;5052128;28;20048;-67
2021/04/09 06:07:21;;;;;;;9.57;6.68;;;;;;;5.18;100.00;101676.44;5052114;28;20045;-68
2021/04/09 06:09:48;;;;;;;9.38;6.63;;;;;;;5.20;100.00;101674.38;5052056;28;20049;-69
2021/04/09 06:12:13;;;;;;;14.38;7.18;;;;;;;5.21;100.00;101674.22;5050599;28;20044;-67
2021/04/09 06:14:39;;;;;;;8.57;7.22;;;;;;;5.21;100.00;101678.81;5051750;28;20183;-67
2021/04/09 06:17:05;;;;;;;12.98;7.30;;;;;;;5.20;100.00;101677.09;5052088;28;20546;-70
2021/04/09 06:19:32;;;;;;;12.70;7.18;;;;;;;5.21;100.00;101676.94;5049732;28;20056;-68
2021/04/09 06:21:58;;;;;;;13.60;7.85;;;;;;;5.21;100.00;101676.09;5051783;28;20068;-68
2021/04/09 06:24:24;;;;;;;9.18;7.68;;;;;;;5.22;100.00;101683.19;5051782;28;20068;-68
2021/04/09 06:26:49;;;;;;;10.18;8.40;;;;;;;5.23;100.00;101685.72;5051716;28;20036;-67
2021/04/09 06:29:15;;;;;;;14.98;8.63;;;;;;;5.26;100.00;101677.22;5051527;28;20037;-68
2021/04/09 06:31:41;;;;;;;13.98;9.18;;;;;;;5.30;100.00;101680.38;5051744;28;20086;-68
2021/04/09 06:34:07;;;;;;;11.90;8.35;;;;;;;5.33;100.00;101680.00;5050596;28;20033;-68
2021/04/09 06:36:32;;;;;;;12.95;8.10;;;;;;;5.39;100.00;101676.56;5051630;28;20037;-69
2021/04/09 06:38:58;;;;;;;11.13;8.60;;;;;;;5.44;100.00;101684.97;5051566;28;20083;-68
2021/04/09 06:41:24;;;;;;;14.95;8.23;;;;;;;5.50;100.00;101686.91;5051507;28;20033;-69
2021/04/09 06:43:49;;;;;;;10.80;8.20;;;;;;;5.55;100.00;101689.88;5051292;28;20391;-68
2021/04/09 06:46:15;;;;;;;13.15;8.35;;;;;;;5.59;100.00;101687.66;5049961;28;20037;-69
2021/04/09 06:48:42;;;;;;;12.73;8.43;;;;;;;5.64;100.00;101690.63;5051294;28;20399;-67
2021/04/09 06:51:10;;;;;;;10.48;7.85;;;;;;;5.67;100.00;101682.97;5051423;28;20035;-69
2021/04/09 06:53:40;;;;;;;10.85;8.00;;;;;;;5.71;100.00;101684.25;5050996;28;20056;-68
2021/04/09 06:56:07;;;;;;;10.77;8.77;;;;;;;5.78;100.00;101686.22;5051185;28;20502;-68
2021/04/09 06:58:35;;;;;;;11.32;7.80;;;;;;;5.81;100.00;101683.97;5051053;28;20033;-69
2021/04/09 07:01:01;;;;;;;11.57;8.70;;;;;;;5.85;100.00;101684.44;5051031;28;20037;-68
2021/04/09 07:03:27;;;;;;;16.13;8.27;;;;;;;5.90;100.00;101692.84;5050941;28;20044;-68
2021/04/09 07:05:52;;;;;;;11.05;8.00;;;;;;;5.96;100.00;101686.69;5051749;28;20036;-69
2021/04/09 07:08:18;;;;;;;14.40;8.13;;;;;;;6.03;100.00;101682.16;5051168;28;20158;-70
2021/04/09 07:10:44;;;;;;;10.98;8.38;;;;;;;6.12;100.00;101686.44;5051102;28;20480;-69
2021/04/09 07:13:11;;;;;;;13.32;9.40;;;;;;;6.20;100.00;101683.59;5050820;28;20051;-68
2021/04/09 07:15:42;;;;;;;14.35;8.82;;;;;;;6.33;100.00;101686.44;5050720;28;20124;-69
2021/04/09 07:18:10;;;;;;;15.48;10.00;;;;;;;6.43;100.00;101698.88;5050727;28;20037;-67
2021/04/09 07:20:38;;;;;;;13.18;9.02;;;;;;;6.47;100.00;101689.31;5050971;28;20039;-69
2021/04/09 07:23:06;;;;;;;14.23;9.95;;;;;;;6.51;100.00;101690.59;5050918;28;20127;-68
2021/04/09 07:25:35;;;;;;;11.05;8.43;;;;;;;6.57;100.00;101684.38;5050692;28;20040;-69
2021/04/09 07:28:11;;;;;;;14.50;9.43;;;;;;;6.67;100.00;101684.88;5049399;28;20029;-70
2021/04/09 07:30:39;;;;;;;11.07;8.52;;;;;;;6.75;100.00;101679.31;5049791;28;20040;-69
2021/04/09 07:33:06;;;;;;;16.02;9.40;;;;;;;6.83;100.00;101683.78;5050103;28;20378;-67
2021/04/09 07:35:53;;;;;;;18.58;9.80;;;;;;;6.93;100.00;101681.53;5050296;28;20041;-67
2021/04/09 07:38:35;;;;;;;15.68;9.00;;;;;;;7.01;100.00;101680.56;5050677;28;20511;-65
2021/04/09 07:41:02;;;;;;;12.30;8.90;;;;;;;7.08;100.00;101670.56;5050357;28;20539;-67
2021/04/09 07:43:30;;;;;;;12.50;7.60;;;;;;;7.15;100.00;101671.47;5050241;28;20109;-70
2021/04/09 07:45:57;;;;;;;13.00;8.75;;;;;;;7.26;100.00;101669.00;5046747;28;20088;-65
2021/04/09 07:48:34;;;;;;;13.63;8.57;;;;;;;7.36;100.00;101668.66;5038183;28;20112;-68
2021/04/09 07:51:00;;;;;;;12.95;8.55;;;;;;;7.43;100.00;101664.09;5042463;28;20065;-68
2021/04/09 07:53:29;;;;;;;13.52;9.18;;;;;;;7.53;100.00;101659.13;5049874;28;20102;-65
2021/04/09 07:56:07;;;;;;;14.77;8.75;;;;;;;7.61;100.00;101665.41;5044411;28;20159;-68
2021/04/09 07:58:36;;;;;;;12.68;8.45;;;;;;;7.67;100.00;101656.47;5043735;28;20060;-65
2021/04/09 08:01:04;;;;;;;16.80;8.52;;;;;;;7.71;100.00;101655.00;5045933;28;20130;-65
2021/04/09 08:03:37;;;;;;;10.38;8.55;;;;;;;7.72;100.00;101651.25;5047765;28;20533;-62
2021/04/09 08:06:15;;;;;;;15.40;9.07;;;;;;;7.70;100.00;101642.47;5049592;28;20471;-66
2021/04/09 08:08:47;;;;;;;12.88;7.97;;;;;;;7.69;100.00;101641.63;5049244;28;20147;-65
2021/04/09 08:11:35;;;;;;;13.63;8.10;;;;;;;7.70;100.00;101637.88;5043616;28;20021;-67
2021/04/09 08:14:15;;;;;;;15.52;9.18;;;;;;;7.71;100.00;101638.69;5044282;28;20056;-64
2021/04/09 08:16:49;;;;;;;11.32;7.97;;;;;;;7.77;100.00;101629.72;5043933;28;20094;-65
2021/04/09 08:19:26;;;;;;;11.27;7.95;;;;;;;7.92;100.00;101638.56;5043948;28;20458;-69
2021/04/09 08:21:52;;;;;;;16.67;8.82;;;;;;;8.05;100.00;101640.47;5050132;28;20037;-69
2021/04/09 08:24:20;;;;;;;15.38;8.90;;;;;;;8.21;100.00;101636.53;5032167;28;20514;-66
2021/04/09 08:26:47;;;;;;;11.13;8.20;;;;;;;8.37;100.00;101634.28;5041771;28;20483;-64
2021/04/09 08:29:14;;;;;;;13.35;8.30;;;;;;;8.52;100.00;101631.34;5048670;28;20043;-67
2021/04/09 08:31:41;;;;;;;12.75;8.48;;;;;;;8.65;100.00;101625.88;5048831;28;20033;-69
2021/04/09 08:34:08;;;;;;;13.68;8.40;;;;;;;8.76;100.00;101627.16;5044842;28;20044;-65
2021/04/09 08:36:37;;;;;;;12.15;8.25;;;;;;;8.85;100.00;101630.47;5046574;28;20411;-63
2021/04/09 08:39:04;;;;;;;15.93;9.55;;;;;;;8.93;100.00;101627.53;5037388;28;20472;-68
2021/04/09 08:41:30;;;;;;;16.15;8.73;;;;;;;9.01;100.00;101624.59;5030418;28;20041;-68
2021/04/09 08:43:56;;;;;;;11.27;8.00;;;;;;;9.11;100.00;101629.59;5052799;28;20562;-67
2021/04/09 08:46:22;;;;;;;14.05;8.75;;;;;;;9.19;100.00;101630.19;5053600;28;20144;-66
2021/04/09 08:48:48;;;;;;;12.80;8.60;;;;;;;9.30;100.00;101629.56;5053434;28;20111;-67
2021/04/09 08:51:20;;;;;;;10.77;8.02;;;;;;;9.43;100.00;101616.94;5053345;28;20032;-65
2021/04/09 08:53:46;;;;;;;8.70;6.60;;;;;;;9.52;100.00;101615.63;5053150;28;20138;-66
2021/04/09 08:56:12;;;;;;;5.68;3.80;;;;;;;9.59;100.00;101611.84;5053384;28;20159;-64
2021/04/09 08:58:47;;;;;;;9.38;4.40;;;;;;;9.70;100.00;101615.75;5053246;28;20476;-68
2021/04/09 09:01:14;;;;;;;4.55;3.90;;;;;;;9.78;100.00;101610.06;5053170;28;20037;-65
2021/04/09 09:03:41;;;;;;;5.22;2.65;;;;;;;9.82;100.00;101605.84;5053120;28;20063;-66
2021/04/09 09:06:08;;;;;;;7.25;2.80;;;;;;;9.89;100.00;101603.91;5053194;28;20025;-68
2021/04/09 09:08:46;;;;;;;6.13;2.13;;;;;;;9.97;100.00;101602.81;5052982;28;20083;-69
2021/04/09 09:11:14;;;;;;;3.25;1.85;;;;;;;10.04;100.00;101600.03;5051894;28;20123;-65
2021/04/09 09:13:42;;;;;;;6.00;1.73;;;;;;;10.08;100.00;101595.81;5052846;28;20037;-68
2021/04/09 09:16:20;;;;;;;3.75;1.15;;;;;;;10.14;100.00;101609.41;5052722;28;20044;-67
2021/04/09 09:18:54;;;;;;;2.20;0.93;;;;;;;10.22;100.00;101605.59;5052856;28;20048;-69
2021/04/09 09:21:28;;;;;;;6.13;1.20;;;;;;;10.33;100.00;101606.78;5053344;28;20029;-67
2021/04/09 09:24:05;;;;;;;4.55;1.75;;;;;;;10.43;100.00;101607.13;5052838;28;20165;-70
2021/04/09 09:26:44;;;;;;;2.58;1.10;;;;;;;10.53;100.00;101608.28;5052794;28;20040;-69
2021/04/09 09:29:12;;;;;;;1.38;1.23;;;;;;;10.71;100.00;101609.41;5051680;28;20386;-71
2021/04/09 09:31:49;;;;;;;1.85;0.80;;;;;;;10.84;100.00;101609.28;5051478;28;20064;-67
2021/04/09 09:34:17;;;;;;;3.13;1.30;;;;;;;10.99;100.00;101607.03;5052645;28;20552;-69
2021/04/09 09:37:10;;;;;;;3.35;1.88;;;;;;;11.11;100.00;101602.50;5052615;28;20033;-67
2021/04/09 09:39:38;;;;;;;2.88;1.70;;;;;;;11.30;100.00;101608.78;5052498;28;20402;-68
2021/04/09 09:42:09;;;;;;;5.53;1.65;;;;;;;11.46;100.00;101607.34;5052549;28;20107;-66
2021/04/09 09:44:42;;;;;;;3.55;1.10;;;;;;;11.62;100.00;101603.97;5051134;28;20037;-64
2021/04/09 09:47:13;;;;;;;5.50;1.30;;;;;;;11.83;100.00;101596.38;5052404;28;20045;-66
2021/04/09 09:49:40;;;;;;;2.05;1.10;;;;;;;11.96;100.00;101596.16;5052436;28;20060;-68
2021/04/09 09:52:22;;;;;;;1.77;1.13;;;;;;;12.09;100.00;101595.97;5052213;28;20069;-64
2021/04/09 09:55:13;;;;;;;3.42;1.20;;;;;;;12.08;100.00;101595.13;5051924;28;20041;-69
2021/04/09 09:57:46;;;;;;;3.63;1.15;;;;;;;12.12;100.00;101590.00;5051878;28;20426;-67
2021/04/09 10:00:24;;;;;;;5.53;1.10;;;;;;;12.09;100.00;101590.50;5052107;28;20033;-68
2021/04/09 10:02:49;;;;;;;1.50;0.98;;;;;;;12.00;100.00;101591.91;5052318;28;20108;-70
2021/04/09 10:05:15;;;;;;;2.83;1.20;;;;;;;11.90;100.00;101589.72;5052040;28;20045;-66
2021/04/09 10:07:41;;;;;;;2.10;1.10;;;;;;;11.78;100.00;101589.66;5050777;28;20043;-67
2021/04/09 10:10:07;;;;;;;2.95;1.40;;;;;;;11.80;100.00;101585.84;5049244;28;20163;-65
2021/04/09 10:12:33;;;;;;;2.47;1.30;;;;;;;11.83;100.00;101585.41;5047972;28;20427;-62
2021/04/09 10:14:59;;;;;;;3.10;2.28;;;;;;;11.76;100.00;101583.56;5051365;28;20052;-64
2021/04/09 10:17:24;;;;;;;3.45;1.73;;;;;;;11.66;100.00;101591.50;5051625;28;20045;-65
2021/04/09 10:20:01;;;;;;;8.70;4.68;;;;;;;11.50;100.00;101581.19;5040620;28;20032;-68
2021/04/09 10:22:28;;;;;;;4.40;3.63;;;;;;;11.39;100.00;101579.22;5051688;28;20141;-65
2021/04/09 10:24:54;;;;;;;5.05;4.07;;;;;;;11.40;100.00;101580.88;5043517;28;20481;-67
2021/04/09 10:27:20;;;;;;;7.75;4.60;;;;;;;11.51;100.00;101582.88;5047253;28;20033;-67
2021/04/09 10:29:46;;;;;;;7.20;5.13;;;;;;;11.65;100.00;101589.84;5049450;28;20107;-66
2021/04/09 10:32:21;;;;;;;6.05;4.25;;;;;;;11.81;100.00;101576.59;5042646;28;20033;-62
2021/04/09 10:34:51;;;;;;;7.28;3.33;;;;;;;11.93;100.00;101575.56;5065788;28;20039;-64
2021/04/09 10:37:25;;;;;;;4.32;2.70;;;;;;;12.06;100.00;101574.53;5070336;28;20060;-61
2021/04/09 10:39:53;;;;;;;6.00;3.45;;;;;;;12.11;100.00;101577.41;5042677;28;20151;-67
2021/04/09 10:42:19;;;;;;;7.75;3.00;;;;;;;12.20;100.00;101573.25;5050868;28;20399;-70
2021/04/09 10:44:45;;;;;;;4.13;2.80;;;;;;;12.35;100.00;101568.16;5043861;28;20033;-66
2021/04/09 10:47:12;;;;;;;4.57;2.70;;;;;;;12.42;100.00;101567.22;5047628;28;20440;-66
2021/04/09 10:49:42;;;;;;;4.20;2.58;;;;;;;12.44;100.00;101565.06;5048091;28;20041;-65
2021/04/09 10:52:09;;;;;;;4.13;2.58;;;;;;;12.52;100.00;101571.03;5046200;28;20124;-66
2021/04/09 10:54:37;;;;;;;4.25;2.47;;;;;;;12.64;100.00;101562.81;5045872;28;20058;-68
2021/04/09 10:57:09;;;;;;;6.15;2.88;;;;;;;12.81;100.00;101569.25;5070980;28;20040;-67
2021/04/09 10:59:36;;;;;;;7.10;2.95;;;;;;;12.78;100.00;101566.16;5044503;28;20091;-69
2021/04/09 11:02:06;;;;;;;5.72;2.72;;;;;;;12.73;100.00;101557.81;5038783;28;20033;-67
2021/04/09 11:04:34;;;;;;;7.88;2.53;;;;;;;12.66;100.00;101568.88;5031045;28;20048;-68
2021/04/09 11:07:01;;;;;;;3.88;2.22;;;;;;;12.50;100.00;101562.22;5030531;28;20488;-64
2021/04/09 11:09:45;;;;;;;4.32;3.17;;;;;;;12.48;100.00;101560.78;5030974;28;20037;-67
2021/04/09 11:12:29;;;;;;;5.55;2.35;;;;;;;12.41;100.00;101554.59;5030900;28;20033;-68
2021/04/09 11:15:16;;;;;;;4.38;1.98;;;;;;;12.50;100.00;101558.66;5030726;28;20045;-65
2021/04/09 11:18:00;;;;;;;4.88;2.10;;;;;;;12.48;100.00;101560.78;5029615;28;20132;-66
2021/04/09 11:20:26;;;;;;;4.00;2.20;;;;;;;12.68;100.00;101555.81;5030748;28;20112;-68
2021/04/09 11:22:59;;;;;;;5.93;2.20;;;;;;;12.78;100.00;101556.03;5039411;28;20044;-66
2021/04/09 11:25:41;;;;;;;6.57;2.20;;;;;;;12.87;100.00;101549.13;5050513;28;20039;-68
2021/04/09 11:28:20;;;;;;;7.07;2.35;;;;;;;13.06;100.00;101551.72;5050508;28;20063;-65